Time;durP1;ratioP1;P1;durP2;ratioP2;P2;SDS_P1;SDS_P2;PMS_P1;PMS_P2;Temp;Humidity;BMP_temperature;BMP_pressure;BME280_temperature;BME280_humidity;BME280_pressure;Samples;Min_cycle;Max_cycle;Signal;HPM_P1;HPM_P2
2023/09/14 00:02:12;;;;;;;3.90;1.90;;;;;;;;;;5064672;28;20139;-65
2023/09/14 00:04:38;;;;;;;3.80;1.77;;;23.60;81.80;;;;;;5054821;28;20045;-66
2023/09/14 00:07:04;;;;;;;4.40;1.63;;;23.50;83.20;;;;;;5020174;28;20394;-67
2023/09/14 00:09:31;;;;;;;5.72;2.00;;;23.50;86.20;;;;;;5070480;28;20124;-66
2023/09/14 00:11:57;;;;;;;3.10;1.50;;;23.60;83.70;;;;;;5033721;28;20071;-66
2023/09/14 00:14:23;;;;;;;4.57;1.70;;;23.40;86.10;;;;;;5042511;28;20040;-65
2023/09/14 00:16:49;;;;;;;3.53;1.58;;;23.80;83.90;;;;;;5031873;28;20040;-66
2023/09/14 00:19:15;;;;;;;3.47;1.60;;;23.40;83.40;;;;;;5064560;28;20048;-66
2023/09/14 00:21:42;;;;;;;3.83;1.50;;;23.40;86.90;;;;;;5085315;28;20390;-64
2023/09/14 00:24:08;;;;;;;5.28;2.00;;;23.40;83.40;;;;;;5020098;28;20044;-66
2023/09/14 00:26:34;;;;;;;4.45;1.75;;;23.40;82.90;;;;;;5034954;28;20051;-66
2023/09/14 00:29:00;;;;;;;4.70;1.90;;;23.40;83.90;;;;;;5070909;28;20033;-66
2023/09/14 00:31:26;;;;;;;3.78;1.70;;;23.40;86.20;;;;;;5027034;28;20084;-65
2023/09/14 00:33:52;;;;;;;5.55;1.80;;;;;;;;;;5035922;28;20398;-65
2023/09/14 00:36:18;;;;;;;5.15;2.13;;;23.30;86.40;;;;;;5068833;28;20048;-66
2023/09/14 00:38:44;;;;;;;3.97;1.60;;;23.40;86.00;;;;;;5030871;28;20095;-66
2023/09/14 00:41:10;;;;;;;4.75;1.80;;;23.30;83.60;;;;;;5074209;28;20048;-66
2023/09/14 00:43:39;;;;;;;7.10;2.30;;;23.30;83.30;;;;;;5045310;28;20083;-62
2023/09/14 00:46:07;;;;;;;5.25;1.90;;;23.40;83.60;;;;;;5056456;28;20108;-68
2023/09/14 00:48:35;;;;;;;4.15;1.70;;;23.30;85.90;;;;;;5019105;28;20127;-67
2023/09/14 00:51:01;;;;;;;4.07;1.70;;;23.20;86.00;;;;;;5081241;28;20041;-66
2023/09/14 00:53:27;;;;;;;4.85;1.98;;;23.40;86.60;;;;;;5036626;28;20067;-67
2023/09/14 00:55:54;;;;;;;4.45;1.92;;;23.60;83.70;;;;;;5029335;28;20041;-66
2023/09/14 00:58:20;;;;;;;4.72;1.85;;;;;;;;;;5068937;28;20053;-66
2023/09/14 01:00:46;;;;;;;6.05;1.90;;;23.20;81.50;;;;;;5044868;28;20041;-67
2023/09/14 01:03:16;;;;;;;5.70;1.83;;;23.30;86.30;;;;;;5068868;28;20044;-65
2023/09/14 01:05:44;;;;;;;6.05;2.28;;;23.20;84.60;;;;;;5045897;28;20056;-65
2023/09/14 01:08:10;;;;;;;4.70;1.80;;;23.20;86.60;;;;;;5030560;28;20060;-67
2023/09/14 01:10:42;;;;;;;4.03;1.67;;;23.30;83.10;;;;;;5032384;28;20053;-67
2023/09/14 01:13:17;;;;;;;3.65;1.67;;;23.00;83.80;;;;;;5034225;28;20045;-66
2023/09/14 01:15:49;;;;;;;5.43;1.70;;;23.20;85.80;;;;;;5047625;28;20044;-67
2023/09/14 01:18:59;;;;;;;4.93;2.20;;;23.30;86.20;;;;;;5023785;28;20055;-65
2023/09/14 01:21:48;;;;;;;4.93;1.77;;;23.20;86.00;;;;;;4963230;28;20057;-63
2023/09/14 01:24:23;;;;;;;5.07;1.80;;;23.20;86.00;;;;;;4992354;28;20061;-66
2023/09/14 01:26:53;;;;;;;3.63;1.63;;;23.20;85.70;;;;;;4991953;28;20144;-66
2023/09/14 01:29:20;;;;;;;4.50;1.80;;;23.10;86.30;;;;;;4990753;28;20037;-65
2023/09/14 01:31:48;;;;;;;5.57;2.15;;;23.10;85.80;;;;;;5008509;28;20049;-66
2023/09/14 01:34:16;;;;;;;5.68;1.80;;;23.20;86.70;;;;;;4975897;28;20169;-66
2023/09/14 01:37:08;;;;;;;5.70;2.00;;;23.20;83.80;;;;;;4992156;28;20053;-65
2023/09/14 01:39:35;;;;;;;4.57;1.83;;;23.00;83.60;;;;;;4973128;28;20065;-66
2023/09/14 01:42:05;;;;;;;4.30;1.75;;;23.20;86.80;;;;;;4999860;28;20119;-66
2023/09/14 01:44:35;;;;;;;3.35;1.67;;;23.40;85.90;;;;;;4973542;28;20502;-66
2023/09/14 01:47:01;;;;;;;5.40;2.00;;;;;;;;;;4961715;28;20054;-66
2023/09/14 01:49:28;;;;;;;4.90;1.83;;;23.40;86.00;;;;;;4992081;28;20046;-65
2023/09/14 01:51:55;;;;;;;4.15;2.03;;;23.30;86.40;;;;;;4959519;28;20060;-66
2023/09/14 01:54:21;;;;;;;5.25;1.85;;;23.20;82.90;;;;;;5053350;28;20558;-66
2023/09/14 01:56:48;;;;;;;7.65;2.00;;;;;;;;;;5029149;28;20401;-66
2023/09/14 01:59:14;;;;;;;5.22;1.80;;;23.30;81.70;;;;;;5040462;28;20048;-65
2023/09/14 02:01:40;;;;;;;5.65;2.40;;;23.20;86.10;;;;;;5051486;28;20045;-62
2023/09/14 02:04:06;;;;;;;6.15;1.80;;;23.30;83.60;;;;;;5051661;28;20101;-62
2023/09/14 02:06:32;;;;;;;3.38;1.67;;;23.20;83.50;;;;;;5050499;28;20055;-62
2023/09/14 02:09:01;;;;;;;6.03;1.92;;;23.50;83.70;;;;;;5052258;28;20379;-66
2023/09/14 02:11:28;;;;;;;4.43;1.90;;;23.10;82.30;;;;;;5004045;28;20145;-64
2023/09/14 02:13:54;;;;;;;5.28;2.10;;;23.20;86.10;;;;;;5006824;28;20056;-63
2023/09/14 02:16:19;;;;;;;4.18;1.55;;;23.20;86.80;;;;;;5015069;28;20498;-62
2023/09/14 02:18:45;;;;;;;4.35;1.83;;;23.10;86.00;;;;;;5032184;28;20076;-62
2023/09/14 02:21:12;;;;;;;4.65;1.88;;;23.40;87.00;;;;;;5033794;28;20076;-66
2023/09/14 02:23:43;;;;;;;3.95;1.60;;;23.20;83.50;;;;;;5062587;28;20106;-66
2023/09/14 02:26:09;;;;;;;5.55;1.80;;;;;;;;;;5071647;28;20389;-65
2023/09/14 02:28:36;;;;;;;4.45;1.75;;;;;;;;;;5055732;28;20088;-62
2023/09/14 02:31:07;;;;;;;4.78;1.85;;;23.30;81.90;;;;;;5070952;28;20068;-63
2023/09/14 02:33:33;;;;;;;4.80;2.00;;;23.10;86.10;;;;;;5029873;28;20138;-62
2023/09/14 02:35:59;;;;;;;4.30;1.90;;;23.30;83.70;;;;;;5071470;28;20032;-62
2023/09/14 02:38:25;;;;;;;4.28;1.80;;;23.10;86.50;;;;;;5075353;28;20080;-66
2023/09/14 02:40:51;;;;;;;5.45;1.75;;;23.40;86.60;;;;;;5044047;28;20079;-67
2023/09/14 02:43:18;;;;;;;4.15;1.75;;;23.20;86.00;;;;;;5071335;28;20063;-66
2023/09/14 02:45:44;;;;;;;4.43;1.77;;;23.50;83.80;;;;;;5034484;28;20045;-63
2023/09/14 02:48:09;;;;;;;3.47;1.75;;;23.20;83.70;;;;;;5037088;28;20076;-62
2023/09/14 02:50:36;;;;;;;6.45;1.98;;;23.10;83.60;;;;;;5056096;28;20491;-66
2023/09/14 02:53:02;;;;;;;5.03;1.90;;;23.30;83.90;;;;;;5030747;28;20360;-66
2023/09/14 02:55:29;;;;;;;4.75;2.17;;;;;;;;;;5018483;28;20048;-62
2023/09/14 02:57:55;;;;;;;3.67;1.73;;;23.20;86.60;;;;;;5060822;28;20200;-67
2023/09/14 03:00:21;;;;;;;4.55;1.98;;;23.00;85.90;;;;;;5059513;28;20109;-66
2023/09/14 03:02:49;;;;;;;4.47;1.90;;;23.10;83.40;;;;;;5056455;28;20048;-66
2023/09/14 03:05:15;;;;;;;5.22;1.92;;;23.20;84.20;;;;;;5038782;28;20044;-67
2023/09/14 03:07:41;;;;;;;4.32;1.77;;;23.50;84.10;;;;;;5061358;28;20044;-66
2023/09/14 03:10:07;;;;;;;3.80;1.63;;;23.30;83.60;;;;;;5057529;28;20045;-67
2023/09/14 03:12:34;;;;;;;4.38;1.80;;;23.20;86.20;;;;;;5038462;28;20053;-67
2023/09/14 03:15:01;;;;;;;3.55;1.60;;;23.50;84.60;;;;;;5023757;28;20051;-65
2023/09/14 03:17:29;;;;;;;4.50;1.73;;;23.00;87.00;;;;;;5048216;28;20045;-66
2023/09/14 03:19:57;;;;;;;3.80;1.70;;;23.20;83.40;;;;;;5080354;28;20044;-66
2023/09/14 03:22:27;;;;;;;5.00;1.88;;;;;;;;;;5023339;28;20044;-65
2023/09/14 03:24:54;;;;;;;3.75;1.65;;;;;;;;;;5042496;28;20513;-66
2023/09/14 03:27:20;;;;;;;2.90;1.50;;;;;;;;;;5070581;28;20059;-65
2023/09/14 03:29:50;;;;;;;5.00;1.70;;;23.10;81.90;;;;;;5088323;28;20047;-65
2023/09/14 03:32:16;;;;;;;4.88;1.60;;;23.00;83.60;;;;;;5026251;28;20045;-66
2023/09/14 03:34:42;;;;;;;4.57;2.00;;;;;;;;;;5035074;28;20548;-65
2023/09/14 03:37:08;;;;;;;4.75;1.70;;;23.20;87.10;;;;;;5083497;28;20455;-67
2023/09/14 03:39:37;;;;;;;3.42;1.80;;;23.10;86.80;;;;;;5036447;28;20120;-67
2023/09/14 03:42:05;;;;;;;3.90;1.77;;;23.00;82.60;;;;;;5064606;28;20053;-67
2023/09/14 03:44:31;;;;;;;5.88;1.90;;;23.30;83.60;;;;;;5035773;28;20080;-66
2023/09/14 03:46:57;;;;;;;4.03;1.70;;;23.10;87.10;;;;;;5053887;28;20527;-66
2023/09/14 03:49:24;;;;;;;3.83;1.80;;;;;;;;;;5035836;28;20033;-66
2023/09/14 03:51:49;;;;;;;3.85;1.42;;;23.20;82.10;;;;;;5080675;28;20104;-66
2023/09/14 03:54:16;;;;;;;4.38;1.70;;;23.40;84.00;;;;;;5052221;28;20140;-66
2023/09/14 03:56:42;;;;;;;5.45;1.80;;;;;;;;;;5079895;28;20543;-64
2023/09/14 03:59:08;;;;;;;4.82;1.70;;;23.00;86.50;;;;;;5059723;28;20086;-66
2023/09/14 04:01:34;;;;;;;4.45;1.80;;;22.90;86.60;;;;;;5035297;28;20044;-65
2023/09/14 04:04:02;;;;;;;4.53;1.63;;;23.10;86.90;;;;;;5053811;28;20123;-66
2023/09/14 04:06:28;;;;;;;2.80;1.40;;;;;;;;;;5036477;28;20048;-65
2023/09/14 04:08:54;;;;;;;3.83;1.63;;;;;;;;;;5054368;28;20056;-66
2023/09/14 04:11:20;;;;;;;4.18;1.70;;;23.10;86.90;;;;;;5055204;28;20036;-66
2023/09/14 04:13:47;;;;;;;4.40;1.70;;;22.90;83.80;;;;;;5038346;28;20962;-65
2023/09/14 04:16:14;;;;;;;4.63;1.65;;;23.00;84.50;;;;;;5058091;28;20052;-66
2023/09/14 04:18:40;;;;;;;5.55;1.90;;;;;;;;;;5056490;28;20105;-66
2023/09/14 04:21:06;;;;;;;3.95;1.85;;;23.10;86.50;;;;;;5038566;28;20051;-66
2023/09/14 04:23:32;;;;;;;4.13;1.50;;;23.10;86.60;;;;;;5058607;28;20495;-65
2023/09/14 04:25:59;;;;;;;4.25;1.77;;;23.00;84.00;;;;;;5036566;28;20052;-66
2023/09/14 04:28:25;;;;;;;5.57;2.08;;;22.90;84.10;;;;;;5021388;28;20068;-67
2023/09/14 04:30:53;;;;;;;5.00;1.83;;;23.00;86.50;;;;;;5086863;28;20079;-65
2023/09/14 04:33:20;;;;;;;4.22;1.60;;;;;;;;;;5031420;28;20124;-67
2023/09/14 04:35:46;;;;;;;6.47;2.13;;;;;;;;;;5042804;28;20041;-67
2023/09/14 04:38:12;;;;;;;4.90;1.73;;;23.10;87.60;;;;;;5025358;28;20041;-66
2023/09/14 04:40:39;;;;;;;2.72;1.50;;;23.00;84.10;;;;;;5034846;28;20063;-66
2023/09/14 04:43:08;;;;;;;4.20;1.45;;;23.00;86.50;;;;;;5083000;28;20441;-66
2023/09/14 04:45:37;;;;;;;4.30;1.70;;;;;;;;;;5037014;28;20115;-67
2023/09/14 04:48:04;;;;;;;5.60;1.63;;;22.80;86.70;;;;;;5045998;28;20380;-67
2023/09/14 04:50:30;;;;;;;4.22;1.52;;;;;;;;;;5038128;28;20076;-67
2023/09/14 04:52:59;;;;;;;5.35;1.60;;;23.10;86.70;;;;;;5066550;28;20052;-66
2023/09/14 04:55:25;;;;;;;4.18;1.80;;;22.80;86.70;;;;;;5053489;28;20037;-66
2023/09/14 04:57:51;;;;;;;5.50;1.70;;;;;;;;;;5051491;28;20076;-67
2023/09/14 05:00:18;;;;;;;3.72;1.70;;;;;;;;;;5072586;28;20036;-63
2023/09/14 05:02:44;;;;;;;5.47;2.00;;;22.80;86.60;;;;;;5054030;28;20134;-67
2023/09/14 05:05:10;;;;;;;3.88;1.90;;;22.70;86.50;;;;;;5019650;28;20049;-67
2023/09/14 05:07:36;;;;;;;4.43;1.55;;;22.60;84.20;;;;;;5063605;28;20760;-65
2023/09/14 05:10:03;;;;;;;4.28;1.80;;;22.80;86.80;;;;;;5063686;28;20105;-66
2023/09/14 05:12:29;;;;;;;3.33;1.55;;;22.80;87.50;;;;;;5055875;28;20040;-65
2023/09/14 05:14:56;;;;;;;3.50;1.50;;;;;;;;;;5054427;28;20420;-67
2023/09/14 05:17:25;;;;;;;4.57;1.92;;;22.80;86.70;;;;;;5051438;28;20041;-66
2023/09/14 05:19:53;;;;;;;5.25;1.63;;;;;;;;;;5036382;28;20041;-64
2023/09/14 05:22:21;;;;;;;4.00;1.67;;;22.90;87.60;;;;;;5033716;28;20040;-65
2023/09/14 05:24:49;;;;;;;4.03;1.73;;;22.70;86.50;;;;;;5020636;28;20044;-65
2023/09/14 05:27:17;;;;;;;3.42;1.70;;;;;;;;;;5010559;28;20041;-65
2023/09/14 05:29:44;;;;;;;5.80;1.80;;;22.80;83.30;;;;;;5053574;28;20045;-66
2023/09/14 05:33:15;;;;;;;3.88;1.67;;;22.70;86.40;;;;;;5052423;28;20105;-65
2023/09/14 05:35:45;;;;;;;;;;;22.90;83.50;;;;;;5067459;28;20119;-66
2023/09/14 05:38:12;;;;;;;4.35;1.65;;;22.80;86.60;;;;;;5017275;28;19932;-66
2023/09/14 05:40:47;;;;;;;4.68;1.67;;;22.90;86.40;;;;;;5034564;28;20048;-64
2023/09/14 05:43:25;;;;;;;3.80;1.50;;;23.00;86.50;;;;;;5070028;28;20045;-66
2023/09/14 05:45:56;;;;;;;4.75;1.70;;;23.00;86.30;;;;;;5041710;28;20052;-66
2023/09/14 05:48:25;;;;;;;5.20;1.80;;;22.90;86.20;;;;;;5031868;28;20044;-67
2023/09/14 05:50:54;;;;;;;4.97;1.85;;;23.00;86.30;;;;;;5050739;28;20455;-66
2023/09/14 05:53:21;;;;;;;4.72;1.65;;;23.10;87.00;;;;;;5059179;28;20090;-66
2023/09/14 05:55:54;;;;;;;6.72;2.03;;;23.10;87.00;;;;;;5071256;28;20045;-66
2023/09/14 05:58:28;;;;;;;3.30;1.70;;;23.10;85.90;;;;;;5017563;28;20092;-66
2023/09/14 06:01:03;;;;;;;4.07;1.90;;;23.20;86.50;;;;;;5068629;28;20036;-67
2023/09/14 06:03:35;;;;;;;3.45;1.63;;;23.00;85.60;;;;;;5041965;28;20041;-65
2023/09/14 06:06:04;;;;;;;3.10;1.40;;;23.10;85.60;;;;;;5073238;28;20047;-66
2023/09/14 06:08:35;;;;;;;5.00;1.90;;;23.10;85.50;;;;;;5037925;28;20805;-64
2023/09/14 06:11:07;;;;;;;4.70;1.88;;;;;;;;;;5039623;28;20047;-65
2023/09/14 06:13:33;;;;;;;3.90;1.70;;;23.20;86.10;;;;;;5037046;28;20116;-65
2023/09/14 06:16:00;;;;;;;4.40;2.00;;;23.80;83.50;;;;;;5032245;28;20040;-65
2023/09/14 06:18:31;;;;;;;3.78;1.60;;;23.20;86.10;;;;;;5055256;28;20044;-64
2023/09/14 06:20:59;;;;;;;5.10;1.83;;;23.30;83.20;;;;;;5028216;28;20591;-64
2023/09/14 06:23:27;;;;;;;3.30;1.50;;;;;;;;;;5022145;28;20075;-62
2023/09/14 06:25:54;;;;;;;5.82;1.83;;;23.30;85.70;;;;;;5061183;28;20040;-62
2023/09/14 06:28:20;;;;;;;4.32;1.90;;;23.40;82.50;;;;;;5070874;28;20045;-61
2023/09/14 06:30:46;;;;;;;3.50;1.55;;;23.60;82.60;;;;;;5068230;28;20037;-62
2023/09/14 06:33:12;;;;;;;4.28;1.60;;;23.70;85.20;;;;;;5045609;28;20059;-65
2023/09/14 06:35:38;;;;;;;2.88;1.40;;;23.90;82.30;;;;;;5050329;28;20128;-66
2023/09/14 06:38:04;;;;;;;3.67;1.60;;;23.80;81.90;;;;;;5040859;28;20429;-66
2023/09/14 06:40:31;;;;;;;3.85;1.48;;;22.40;81.00;;;;;;5056979;28;20057;-66
2023/09/14 06:42:57;;;;;;;3.55;1.70;;;24.20;81.60;;;;;;5030894;28;20097;-66
2023/09/14 06:45:23;;;;;;;4.70;1.70;;;24.20;81.50;;;;;;5024006;28;20077;-66
2023/09/14 06:47:52;;;;;;;4.57;1.63;;;24.00;80.70;;;;;;5039557;28;20052;-66
2023/09/14 06:50:18;;;;;;;3.90;1.75;;;;;;;;;;5057542;28;20048;-65
2023/09/14 06:52:47;;;;;;;3.83;1.63;;;24.20;78.70;;;;;;5055233;28;20044;-65
2023/09/14 06:55:13;;;;;;;4.05;1.90;;;24.10;83.00;;;;;;5036735;28;20458;-64
2023/09/14 06:57:40;;;;;;;3.97;1.77;;;24.60;82.70;;;;;;5054443;28;20049;-65
2023/09/14 07:00:20;;;;;;;4.47;1.58;;;24.60;82.80;;;;;;5024500;28;20041;-64
2023/09/14 07:02:51;;;;;;;5.50;1.75;;;24.50;79.20;;;;;;5038815;28;20040;-66
2023/09/14 07:05:17;;;;;;;3.28;1.50;;;24.70;79.70;;;;;;5063501;28;20036;-66
2023/09/14 07:07:43;;;;;;;4.20;1.80;;;24.70;79.30;;;;;;5067968;28;20210;-64
2023/09/14 07:10:12;;;;;;;3.25;1.60;;;24.90;79.30;;;;;;5037142;28;20411;-69
2023/09/14 07:12:39;;;;;;;5.35;1.73;;;24.90;79.20;;;;;;5064499;28;20040;-64
2023/09/14 07:15:08;;;;;;;4.90;2.10;;;25.00;78.50;;;;;;5070616;28;20056;-70
2023/09/14 07:17:35;;;;;;;5.47;1.85;;;24.80;77.70;;;;;;5081291;28;20045;-70
2023/09/14 07:20:04;;;;;;;4.40;1.70;;;25.10;77.40;;;;;;5050254;28;20043;-69
2023/09/14 07:22:30;;;;;;;5.50;2.22;;;25.20;77.40;;;;;;5025204;28;20044;-65
2023/09/14 07:24:59;;;;;;;5.38;2.00;;;24.80;79.20;;;;;;5050730;28;20405;-67
2023/09/14 07:27:25;;;;;;;5.05;1.90;;;24.90;75.80;;;;;;5038715;28;20647;-67
2023/09/14 07:29:51;;;;;;;4.50;1.80;;;25.00;76.70;;;;;;5022196;28;20040;-67
2023/09/14 07:32:18;;;;;;;5.78;1.92;;;25.00;76.40;;;;;;5020417;28;20051;-68
2023/09/14 07:34:45;;;;;;;5.97;1.90;;;24.90;75.90;;;;;;5037688;28;20102;-70
2023/09/14 07:37:10;;;;;;;4.60;1.83;;;25.00;75.20;;;;;;5059920;28;20092;-69
2023/09/14 07:39:36;;;;;;;6.43;2.17;;;24.90;75.70;;;;;;5074879;28;20076;-69
2023/09/14 07:42:02;;;;;;;6.30;1.98;;;24.70;74.90;;;;;;5035678;28;20053;-69
2023/09/14 07:44:28;;;;;;;5.32;1.60;;;25.00;74.20;;;;;;5061286;28;20052;-68
2023/09/14 07:46:54;;;;;;;4.68;1.80;;;24.70;74.50;;;;;;5071720;28;20094;-61
2023/09/14 07:49:20;;;;;;;6.90;1.90;;;24.90;74.20;;;;;;5062132;28;20127;-61
2023/09/14 07:51:45;;;;;;;3.92;1.70;;;24.80;74.00;;;;;;5059240;28;20049;-63
2023/09/14 07:54:11;;;;;;;6.53;2.30;;;24.70;73.70;;;;;;5055733;28;20056;-63
2023/09/14 07:56:37;;;;;;;5.70;1.70;;;24.80;73.60;;;;;;5061181;28;20033;-62
2023/09/14 07:59:03;;;;;;;5.07;1.77;;;25.00;73.50;;;;;;5051789;28;20052;-61
2023/09/14 08:01:28;;;;;;;6.57;2.00;;;25.10;73.40;;;;;;5053963;28;20040;-62
2023/09/14 08:03:54;;;;;;;5.45;1.88;;;25.10;73.50;;;;;;5081864;28;20520;-62
2023/09/14 08:06:23;;;;;;;4.95;1.88;;;25.00;73.30;;;;;;5055847;28;20064;-62
2023/09/14 08:08:55;;;;;;;4.93;1.60;;;25.00;72.70;;;;;;5062094;28;20044;-69
2023/09/14 08:11:24;;;;;;;4.93;1.63;;;25.00;73.60;;;;;;5043497;28;20109;-70
2023/09/14 08:13:51;;;;;;;5.15;1.75;;;25.10;72.40;;;;;;5013730;28;20094;-70
2023/09/14 08:16:17;;;;;;;4.68;1.80;;;24.60;72.40;;;;;;5066777;28;20106;-66
2023/09/14 08:18:43;;;;;;;5.93;1.65;;;25.10;72.60;;;;;;5055884;28;20478;-68
2023/09/14 08:21:09;;;;;;;5.32;1.98;;;26.50;73.30;;;;;;5062420;28;20048;-61
2023/09/14 08:23:35;;;;;;;5.07;1.65;;;25.00;72.20;;;;;;5039098;28;20037;-61
2023/09/14 08:26:04;;;;;;;5.30;1.60;;;25.20;74.70;;;;;;5057628;28;20041;-62
2023/09/14 08:28:33;;;;;;;3.92;1.50;;;25.00;72.90;;;;;;5066350;28;20498;-69
2023/09/14 08:30:59;;;;;;;6.10;1.70;;;24.80;71.10;;;;;;5024841;28;20037;-69
2023/09/14 08:33:24;;;;;;;4.00;1.55;;;25.30;71.90;;;;;;5055461;28;20047;-70
2023/09/14 08:35:51;;;;;;;3.97;1.58;;;25.30;73.90;;;;;;5039635;28;20394;-70
2023/09/14 08:38:17;;;;;;;4.57;1.42;;;25.10;71.50;;;;;;5019742;28;20052;-71
2023/09/14 08:40:43;;;;;;;6.95;1.85;;;25.10;71.70;;;;;;5054978;28;20449;-69
2023/09/14 08:43:12;;;;;;;5.70;1.52;;;25.20;71.00;;;;;;5036556;28;20056;-62
2023/09/14 08:45:42;;;;;;;5.95;1.65;;;24.90;71.30;;;;;;5045363;28;20530;-70
2023/09/14 08:48:08;;;;;;;7.95;1.67;;;25.20;74.00;;;;;;5062515;28;20071;-69
2023/09/14 08:50:35;;;;;;;6.03;1.67;;;25.00;73.60;;;;;;5060163;28;20056;-69
2023/09/14 08:53:02;;;;;;;4.13;1.40;;;25.10;70.50;;;;;;5059369;28;20044;-69
2023/09/14 08:55:34;;;;;;;5.55;1.80;;;25.20;71.30;;;;;;5055169;28;20573;-69
2023/09/14 08:58:01;;;;;;;6.85;2.13;;;25.20;69.50;;;;;;5017671;28;20036;-70
2023/09/14 09:00:28;;;;;;;4.32;1.60;;;24.00;70.10;;;;;;5046400;28;20056;-61
2023/09/14 09:02:55;;;;;;;3.78;1.40;;;25.20;70.70;;;;;;5047101;28;20087;-61
2023/09/14 09:05:27;;;;;;;5.57;1.90;;;25.10;70.50;;;;;;5063970;28;20110;-69
2023/09/14 09:07:55;;;;;;;5.38;1.48;;;25.00;68.80;;;;;;5035405;28;20041;-69
2023/09/14 09:10:29;;;;;;;3.95;1.70;;;25.10;70.30;;;;;;5036352;28;20071;-70
2023/09/14 09:13:03;;;;;;;4.80;1.88;;;25.10;69.00;;;;;;5041358;28;20423;-64
2023/09/14 09:15:29;;;;;;;5.20;1.65;;;23.20;67.80;;;;;;5068529;28;20503;-61
2023/09/14 09:18:04;;;;;;;4.00;1.40;;;25.40;73.00;;;;;;5068917;28;20053;-62
2023/09/14 09:20:30;;;;;;;5.50;1.63;;;25.10;70.30;;;;;;5021773;28;20106;-65
2023/09/14 09:22:59;;;;;;;4.15;1.48;;;25.20;69.60;;;;;;5018833;28;20044;-61
2023/09/14 09:25:25;;;;;;;9.73;2.15;;;24.90;70.00;;;;;;5064231;28;20055;-61
2023/09/14 09:28:09;;;;;;;16.73;2.45;;;25.10;69.90;;;;;;5036325;28;20108;-63
2023/09/14 09:30:36;;;;;;;11.88;2.42;;;;;;;;;;5050678;28;20052;-71
2023/09/14 09:33:02;;;;;;;6.00;1.80;;;24.60;67.80;;;;;;5034112;28;20123;-69
2023/09/14 09:35:29;;;;;;;5.93;1.83;;;24.60;69.50;;;;;;5061421;28;20083;-70
2023/09/14 09:37:59;;;;;;;5.85;1.75;;;24.60;71.90;;;;;;5053992;28;20123;-70
2023/09/14 09:40:26;;;;;;;5.40;1.88;;;24.60;71.10;;;;;;5042873;28;20048;-61
2023/09/14 09:42:54;;;;;;;5.47;1.83;;;24.40;69.90;;;;;;5043434;28;20045;-70
2023/09/14 09:45:23;;;;;;;8.13;2.00;;;24.60;69.10;;;;;;5002213;28;20117;-70
2023/09/14 09:47:49;;;;;;;7.63;2.00;;;24.50;69.50;;;;;;5037407;28;20525;-70
2023/09/14 09:50:17;;;;;;;5.95;1.77;;;24.00;71.30;;;;;;5018933;28;20080;-69
2023/09/14 09:52:46;;;;;;;4.72;2.00;;;22.70;67.20;;;;;;5034707;28;20049;-65
2023/09/14 09:55:22;;;;;;;4.97;1.60;;;24.30;68.20;;;;;;5032210;28;20117;-69
2023/09/14 09:57:59;;;;;;;4.35;1.65;;;24.00;69.80;;;;;;5018045;28;20059;-69
2023/09/14 10:00:34;;;;;;;5.45;1.70;;;24.10;68.40;;;;;;5068708;28;20412;-67
2023/09/14 10:03:01;;;;;;;7.63;1.85;;;23.90;68.20;;;;;;5037234;28;20045;-67
2023/09/14 10:05:30;;;;;;;6.30;1.60;;;;;;;;;;5052904;28;20383;-63
2023/09/14 10:08:00;;;;;;;6.85;1.60;;;23.90;71.20;;;;;;5066051;28;20064;-64
2023/09/14 10:10:28;;;;;;;5.60;1.80;;;24.00;69.00;;;;;;5052159;28;20180;-67
2023/09/14 10:12:55;;;;;;;7.80;2.20;;;23.80;70.80;;;;;;5053448;28;20394;-67
2023/09/14 10:15:26;;;;;;;6.25;2.13;;;23.90;69.00;;;;;;5050573;28;20107;-68
2023/09/14 10:17:56;;;;;;;8.05;2.17;;;23.30;67.40;;;;;;5035849;28;20056;-68
2023/09/14 10:20:23;;;;;;;4.60;1.60;;;23.60;71.30;;;;;;5047504;28;20069;-66
2023/09/14 10:22:49;;;;;;;21.08;3.28;;;23.70;69.70;;;;;;5051197;28;20037;-67
2023/09/14 10:25:16;;;;;;;8.75;2.10;;;23.80;73.10;;;;;;5054630;28;20045;-66
2023/09/14 10:27:44;;;;;;;10.68;2.17;;;23.70;70.10;;;;;;5068420;28;20103;-66
2023/09/14 10:30:18;;;;;;;8.45;1.95;;;24.50;70.40;;;;;;5037064;28;20048;-66
2023/09/14 10:32:48;;;;;;;8.30;1.92;;;23.80;69.40;;;;;;5051837;28;20425;-66
2023/09/14 10:35:15;;;;;;;5.20;1.90;;;23.80;72.10;;;;;;5031762;28;20045;-66
2023/09/14 10:37:47;;;;;;;6.45;1.60;;;24.00;69.40;;;;;;5014620;28;20062;-66
2023/09/14 10:40:17;;;;;;;7.22;2.08;;;25.10;70.30;;;;;;4982983;28;20056;-68
2023/09/14 10:42:43;;;;;;;9.68;2.10;;;23.80;71.30;;;;;;5016831;28;20577;-67
2023/09/14 10:45:10;;;;;;;5.15;2.15;;;23.90;71.70;;;;;;5018544;28;20045;-62
2023/09/14 10:47:37;;;;;;;7.50;2.10;;;23.80;68.70;;;;;;5035060;28;20041;-61
2023/09/14 10:50:06;;;;;;;5.82;2.05;;;24.00;69.40;;;;;;5054880;28;20049;-62
2023/09/14 10:52:32;;;;;;;7.20;1.90;;;24.20;69.20;;;;;;5020469;28;20052;-62
2023/09/14 10:54:58;;;;;;;5.40;1.77;;;24.10;71.90;;;;;;5054467;28;20355;-62
2023/09/14 10:57:24;;;;;;;5.75;1.98;;;24.00;68.40;;;;;;5072026;28;20451;-63
2023/09/14 10:59:52;;;;;;;7.60;2.30;;;24.10;71.20;;;;;;5054440;28;20056;-62
2023/09/14 11:02:41;;;;;;;6.53;1.88;;;24.00;71.10;;;;;;5072812;28;20041;-62
2023/09/14 11:05:19;;;;;;;7.57;2.25;;;24.30;67.30;;;;;;5068947;28;20045;-62
2023/09/14 11:07:49;;;;;;;8.15;2.08;;;24.10;71.40;;;;;;5057778;28;20417;-61
2023/09/14 11:10:19;;;;;;;7.30;1.92;;;24.00;67.90;;;;;;5036355;28;20049;-61
2023/09/14 11:12:45;;;;;;;4.40;1.60;;;24.10;71.30;;;;;;5056527;28;20049;-60
2023/09/14 11:15:23;;;;;;;7.80;1.90;;;24.20;72.20;;;;;;5071877;28;20144;-67
2023/09/14 11:17:53;;;;;;;6.72;2.08;;;24.20;68.70;;;;;;5055372;28;20045;-68
2023/09/14 11:20:22;;;;;;;5.00;1.73;;;24.20;71.70;;;;;;5040613;28;20045;-66
2023/09/14 11:22:48;;;;;;;5.93;2.08;;;24.50;69.10;;;;;;5055179;28;20106;-66
2023/09/14 11:25:32;;;;;;;6.93;1.88;;;24.50;69.00;;;;;;5066593;28;20097;-67
2023/09/14 11:27:58;;;;;;;5.13;1.90;;;24.50;67.10;;;;;;5036590;28;20041;-68
2023/09/14 11:30:25;;;;;;;5.75;2.00;;;24.40;71.40;;;;;;5067439;28;20044;-68
2023/09/14 11:32:54;;;;;;;6.25;2.00;;;24.30;71.40;;;;;;5067695;28;20506;-66
2023/09/14 11:35:36;;;;;;;6.57;2.00;;;24.40;68.50;;;;;;5045670;28;20127;-61
2023/09/14 11:38:09;;;;;;;12.38;2.72;;;24.40;68.30;;;;;;5055389;28;20487;-67
2023/09/14 11:40:35;;;;;;;;;;;24.30;68.20;;;;;;5071078;28;20109;-67
2023/09/14 11:43:27;;;;;;;6.70;2.25;;;24.50;68.80;;;;;;5047941;28;19971;-67
2023/09/14 11:46:04;;;;;;;5.47;1.95;;;24.40;71.10;;;;;;5053916;28;20095;-68
2023/09/14 11:48:35;;;;;;;15.05;2.17;;;24.50;68.60;;;;;;5047858;28;20064;-67
2023/09/14 11:51:02;;;;;;;6.20;2.33;;;24.50;68.70;;;;;;5074066;28;20045;-65
2023/09/14 11:53:32;;;;;;;6.53;2.33;;;24.60;68.80;;;;;;5040596;28;20056;-65
2023/09/14 11:55:59;;;;;;;6.78;2.20;;;24.90;69.20;;;;;;5067080;28;20045;-66
2023/09/14 11:58:25;;;;;;;8.13;2.53;;;23.60;68.30;;;;;;5056460;28;20044;-68
2023/09/14 12:00:54;;;;;;;9.20;2.63;;;24.80;69.10;;;;;;5084661;28;20053;-66
2023/09/14 12:03:21;;;;;;;6.47;2.10;;;25.00;69.20;;;;;;5065880;28;20498;-67
2023/09/14 12:05:50;;;;;;;7.05;2.55;;;24.80;68.90;;;;;;5045728;28;20068;-68
2023/09/14 12:08:16;;;;;;;7.13;2.30;;;24.70;71.80;;;;;;5054195;28;20051;-68
2023/09/14 12:10:44;;;;;;;7.68;2.80;;;24.50;68.90;;;;;;5017253;28;20052;-68
2023/09/14 12:13:14;;;;;;;6.25;2.33;;;24.70;68.80;;;;;;5035852;28;20110;-68
2023/09/14 12:15:44;;;;;;;6.72;2.20;;;24.60;70.90;;;;;;5007072;28;20057;-68
2023/09/14 12:18:11;;;;;;;5.80;2.33;;;24.30;70.90;;;;;;5041843;28;20049;-67
2023/09/14 12:20:41;;;;;;;5.93;2.30;;;24.50;70.90;;;;;;5037724;28;20049;-68
2023/09/14 12:23:07;;;;;;;8.77;2.60;;;24.40;68.90;;;;;;5045720;28;20044;-67
2023/09/14 12:25:33;;;;;;;8.90;2.58;;;;;;;;;;5037555;28;20044;-68
2023/09/14 12:28:00;;;;;;;7.70;2.95;;;24.60;66.60;;;;;;5006667;28;20044;-68
2023/09/14 12:30:27;;;;;;;7.65;2.45;;;24.50;70.90;;;;;;5052818;28;20059;-68
2023/09/14 12:32:54;;;;;;;7.05;2.60;;;24.40;68.30;;;;;;5027199;28;20182;-68
2023/09/14 12:35:20;;;;;;;7.28;2.60;;;24.60;68.40;;;;;;5039200;28;20546;-68
2023/09/14 12:37:46;;;;;;;8.43;2.63;;;24.50;71.20;;;;;;5034756;28;20126;-67
2023/09/14 12:40:12;;;;;;;5.45;2.47;;;24.50;71.30;;;;;;5070143;28;20086;-68
2023/09/14 12:42:42;;;;;;;8.68;2.70;;;24.40;68.70;;;;;;5016020;28;20063;-68
2023/09/14 12:45:15;;;;;;;5.78;2.50;;;24.30;68.30;;;;;;5034727;28;20049;-68
2023/09/14 12:47:47;;;;;;;7.13;2.50;;;24.40;67.90;;;;;;5056272;28;20106;-68
2023/09/14 12:50:16;;;;;;;7.35;2.58;;;24.20;71.40;;;;;;5043671;28;20051;-69
2023/09/14 12:52:43;;;;;;;10.45;2.83;;;24.20;71.00;;;;;;5042565;28;20048;-69
2023/09/14 12:55:14;;;;;;;7.75;2.80;;;24.10;68.80;;;;;;5029524;28;20048;-68
2023/09/14 12:57:49;;;;;;;8.57;2.72;;;24.30;69.10;;;;;;5053517;28;20044;-68
2023/09/14 13:00:22;;;;;;;8.88;3.05;;;24.10;67.30;;;;;;5065120;28;20170;-67
2023/09/14 13:02:49;;;;;;;7.57;2.13;;;24.40;68.60;;;;;;5069582;28;20048;-67
2023/09/14 13:05:21;;;;;;;8.10;2.67;;;24.40;69.00;;;;;;5013168;28;20045;-66